Terminal Aerodrome Forecast
Issued by NWS

Home | Current Version | Previous Version | Text Only | Print | Product List | Glossary On
Versions: 1 2 3 4 5 6 7 8 9 10 11 12 13 14 15 16
061
FTUS46 KSEW 121735
TAFPAE
TAF
KPAE 121735Z 1218/1318 17012G22KT 3SM -RA BR BKN008 OVC014
     FM122000 19016G25KT P6SM VCSH SCT012 BKN025
     FM130800 18011G18KT 6SM -RA BR SCT010 BKN015 OVC025
     FM131400 16010KT P6SM VCSH SCT012 OVC020=

USA.gov is the U.S. government's official web portal to all federal, state and local government web resources and services.